BVX01NF OMDB-YMML
Flight info
| Callsign | BVX01NF |
|---|---|
| Flight time | N/A |
| Altitude | 31000 |
| Route | ANVIX L223 TARDI N629 GIDAN P570 EMURU M300 MESAN/N0483F330 M300 VASTU P895 BIKOK M641 KAT N640 EGODU/N0479F350 N640 ELATI DCT 07S095E 10S098E DCT SAKAB/N0462F370 DCT BIBGA DCT ATLOD DCT OPALL DCT LST DCT SEEMO/N0450F390 DCT ISRED DCT DONBU DCT MTG Y53 ALAXO |
| Aircraft | A343/H-SDE2E3FGHIJ4J5M1RWXY/LB1D1 |
Departure
| Time | 2026-05-04 08:52 |
|---|---|
| Airport | Dubai International Airport (OMDB) |
Arrival
| Time | N/A |
|---|---|
| Airport | Melbourne Airport (YMML) |
| Time | Latitude | Longitude | Altitude | Speed | Heading |
|---|---|---|---|---|---|
| 2026-05-04 07:54 | 25.26295 | 55.34378 | 25 ft | 0 kts | 31° |
| 2026-05-04 08:35 | 25.26226 | 55.34328 | 30 ft | 4 kts | 61° |
| 2026-05-04 08:35 | 25.26222 | 55.34302 | 30 ft | 4 kts | 107° |
| 2026-05-04 08:35 | 25.26233 | 55.34276 | 30 ft | 3 kts | 122° |
| 2026-05-04 08:35 | 25.26246 | 55.34252 | 30 ft | 4 kts | 122° |
| 2026-05-04 08:37 | 25.26249 | 55.34247 | 30 ft | 0 kts | 122° |
| 2026-05-04 08:40 | 25.26234 | 55.34274 | 30 ft | 9 kts | 122° |
| 2026-05-04 08:40 | 25.26192 | 55.34348 | 28 ft | 14 kts | 122° |
| 2026-05-04 08:41 | 25.26110 | 55.34494 | 28 ft | 19 kts | 122° |
| 2026-05-04 08:41 | 25.26059 | 55.34583 | 30 ft | 22 kts | 122° |
| 2026-05-04 08:41 | 25.25970 | 55.34742 | 28 ft | 26 kts | 122° |
| 2026-05-04 08:41 | 25.25867 | 55.34924 | 26 ft | 25 kts | 122° |
| 2026-05-04 08:42 | 25.25825 | 55.35005 | 26 ft | 9 kts | 110° |
| 2026-05-04 08:42 | 25.25845 | 55.35058 | 28 ft | 8 kts | 37° |
| 2026-05-04 08:42 | 25.25898 | 55.35094 | 29 ft | 10 kts | 31° |
| 2026-05-04 08:42 | 25.25981 | 55.35150 | 28 ft | 18 kts | 31° |
| 2026-05-04 08:43 | 25.26106 | 55.35233 | 29 ft | 24 kts | 31° |
| 2026-05-04 08:43 | 25.26252 | 55.35333 | 28 ft | 24 kts | 32° |
| 2026-05-04 08:43 | 25.26388 | 55.35423 | 27 ft | 17 kts | 30° |
| 2026-05-04 08:43 | 25.26433 | 55.35472 | 30 ft | 8 kts | 75° |
| 2026-05-04 08:44 | 25.26411 | 55.35533 | 30 ft | 11 kts | 121° |
| 2026-05-04 08:44 | 25.26354 | 55.35631 | 28 ft | 19 kts | 122° |
| 2026-05-04 08:46 | 25.25468 | 55.37208 | 31 ft | 40 kts | 122° |
| 2026-05-04 08:46 | 25.25321 | 55.37469 | 27 ft | 40 kts | 122° |
| 2026-05-04 08:46 | 25.25172 | 55.37733 | 27 ft | 41 kts | 122° |
| 2026-05-04 08:46 | 25.25019 | 55.38004 | 28 ft | 39 kts | 122° |
| 2026-05-04 08:47 | 25.24938 | 55.38150 | 29 ft | 11 kts | 122° |
| 2026-05-04 08:47 | 25.24891 | 55.38206 | 29 ft | 8 kts | 160° |
| 2026-05-04 08:47 | 25.24875 | 55.38206 | 28 ft | 0 kts | 184° |
| 2026-05-04 08:47 | 25.24862 | 55.38201 | 26 ft | 2 kts | 200° |
| 2026-05-04 08:48 | 25.24861 | 55.38200 | 26 ft | 0 kts | 202° |
| 2026-05-04 08:49 | 25.24850 | 55.38194 | 27 ft | 5 kts | 207° |
| 2026-05-04 08:50 | 25.24825 | 55.37991 | 29 ft | 39 kts | 301° |
| 2026-05-04 08:50 | 25.25052 | 55.37586 | 31 ft | 84 kts | 301° |
| 2026-05-04 08:51 | 25.25432 | 55.36899 | 28 ft | 124 kts | 301° |
| 2026-05-04 08:51 | 25.25945 | 55.35975 | 28 ft | 158 kts | 301° |
| 2026-05-04 08:51 | 25.26555 | 55.34870 | 212 ft | 173 kts | 301° |
| 2026-05-04 08:51 | 25.27179 | 55.33724 | 658 ft | 175 kts | 301° |
| 2026-05-04 08:52 | 25.27822 | 55.32574 | 1073 ft | 177 kts | 302° |
| 2026-05-04 08:52 | 25.28470 | 55.31416 | 1583 ft | 177 kts | 300° |
| 2026-05-04 08:52 | 25.29080 | 55.30217 | 1880 ft | 186 kts | 292° |
| 2026-05-04 08:52 | 25.29220 | 55.28769 | 2033 ft | 201 kts | 257° |
| 2026-05-04 08:53 | 25.28716 | 55.27280 | 2228 ft | 212 kts | 246° |
| 2026-05-04 08:54 | 25.23825 | 55.17292 | 4720 ft | 229 kts | 214° |
| 2026-05-04 08:55 | 25.22294 | 55.16710 | 4974 ft | 241 kts | 184° |
| 2026-05-04 08:55 | 25.20595 | 55.16766 | 5344 ft | 246 kts | 173° |
| 2026-05-04 08:55 | 25.18959 | 55.17336 | 5708 ft | 251 kts | 149° |
| 2026-05-04 08:55 | 25.17707 | 55.18673 | 6043 ft | 253 kts | 121° |
| 2026-05-04 08:57 | 25.11468 | 55.31742 | 8263 ft | 295 kts | 117° |
| 2026-05-04 09:01 | 24.96671 | 55.65248 | 11529 ft | 404 kts | 120° |
| 2026-05-04 09:01 | 24.95226 | 55.67913 | 11874 ft | 405 kts | 120° |
| 2026-05-04 09:01 | 24.93709 | 55.70541 | 12210 ft | 408 kts | 124° |
| 2026-05-04 09:01 | 24.92056 | 55.73084 | 12577 ft | 409 kts | 126° |
| 2026-05-04 09:02 | 24.90369 | 55.75621 | 12896 ft | 411 kts | 126° |
| 2026-05-04 09:02 | 24.88676 | 55.78165 | 13251 ft | 413 kts | 126° |
| 2026-05-04 09:02 | 24.86978 | 55.80720 | 13621 ft | 414 kts | 126° |
| 2026-05-04 09:02 | 24.85267 | 55.83295 | 13907 ft | 417 kts | 126° |
| 2026-05-04 09:03 | 24.83571 | 55.85852 | 14186 ft | 420 kts | 126° |
| 2026-05-04 09:03 | 24.81831 | 55.88435 | 14530 ft | 420 kts | 126° |
| 2026-05-04 09:03 | 24.80069 | 55.91027 | 14802 ft | 423 kts | 126° |
| 2026-05-04 09:03 | 24.78257 | 55.93591 | 15096 ft | 426 kts | 130° |
| 2026-05-04 09:04 | 24.76234 | 55.95994 | 15415 ft | 428 kts | 134° |
| 2026-05-04 09:04 | 24.74085 | 55.98277 | 15751 ft | 430 kts | 136° |
| 2026-05-04 09:04 | 24.71878 | 56.00504 | 16102 ft | 431 kts | 137° |
| 2026-05-04 09:04 | 24.69650 | 56.02719 | 16433 ft | 433 kts | 137° |
| 2026-05-04 09:05 | 24.67411 | 56.04955 | 16736 ft | 436 kts | 137° |
| 2026-05-04 09:05 | 24.65165 | 56.07221 | 17061 ft | 438 kts | 136° |
| 2026-05-04 09:05 | 24.62919 | 56.09506 | 17420 ft | 440 kts | 136° |
| 2026-05-04 09:05 | 24.60681 | 56.11796 | 17772 ft | 442 kts | 136° |
| 2026-05-04 09:06 | 24.58457 | 56.14093 | 18102 ft | 444 kts | 134° |
| 2026-05-04 09:07 | 24.44006 | 56.32161 | 20188 ft | 457 kts | 130° |
| 2026-05-04 09:08 | 24.41923 | 56.34817 | 20417 ft | 460 kts | 130° |
| 2026-05-04 09:08 | 24.39830 | 56.37480 | 20710 ft | 461 kts | 130° |
| 2026-05-04 09:08 | 24.37727 | 56.40151 | 21033 ft | 462 kts | 130° |
| 2026-05-04 09:08 | 24.35624 | 56.42818 | 21312 ft | 463 kts | 130° |
| 2026-05-04 09:09 | 24.33509 | 56.45499 | 21569 ft | 465 kts | 130° |
| 2026-05-04 09:09 | 24.31383 | 56.48193 | 21834 ft | 467 kts | 131° |
| 2026-05-04 09:09 | 24.29288 | 56.50850 | 22140 ft | 468 kts | 130° |
| 2026-05-04 09:09 | 24.27257 | 56.53649 | 22413 ft | 469 kts | 127° |
| 2026-05-04 09:10 | 24.25330 | 56.56560 | 22707 ft | 471 kts | 125° |
| 2026-05-04 09:10 | 24.23447 | 56.59507 | 22959 ft | 473 kts | 124° |
| 2026-05-04 09:10 | 24.21559 | 56.62473 | 23249 ft | 474 kts | 125° |
| 2026-05-04 09:10 | 24.19655 | 56.65432 | 23481 ft | 476 kts | 125° |
| 2026-05-04 09:11 | 24.17730 | 56.68386 | 23675 ft | 478 kts | 126° |
| 2026-05-04 09:11 | 24.15776 | 56.71351 | 23876 ft | 481 kts | 126° |
| 2026-05-04 09:11 | 24.13806 | 56.74319 | 24064 ft | 483 kts | 126° |
| 2026-05-04 09:11 | 24.11821 | 56.77296 | 24273 ft | 485 kts | 126° |
| 2026-05-04 09:12 | 24.09828 | 56.80282 | 24459 ft | 487 kts | 126° |
| 2026-05-04 09:12 | 24.07828 | 56.83276 | 24663 ft | 489 kts | 127° |
| 2026-05-04 09:14 | 23.93570 | 57.04583 | 25915 ft | 503 kts | 127° |
| 2026-05-04 09:14 | 23.91497 | 57.07672 | 26082 ft | 505 kts | 127° |
| 2026-05-04 09:14 | 23.89415 | 57.10773 | 26287 ft | 507 kts | 127° |
| 2026-05-04 09:14 | 23.87328 | 57.13886 | 26431 ft | 510 kts | 127° |
| 2026-05-04 09:15 | 23.85225 | 57.17018 | 26548 ft | 512 kts | 127° |
| 2026-05-04 09:15 | 23.83112 | 57.20160 | 26755 ft | 513 kts | 127° |
| 2026-05-04 09:15 | 23.80990 | 57.23314 | 26945 ft | 515 kts | 127° |
| 2026-05-04 09:15 | 23.78863 | 57.26472 | 27106 ft | 517 kts | 127° |
| 2026-05-04 09:17 | 23.61121 | 57.51647 | 28400 ft | 530 kts | 130° |
| 2026-05-04 09:18 | 23.58819 | 57.54775 | 28643 ft | 530 kts | 130° |
| 2026-05-04 09:18 | 23.56514 | 57.57920 | 28864 ft | 530 kts | 130° |
| 2026-05-04 09:18 | 23.54217 | 57.61063 | 29059 ft | 530 kts | 130° |
| 2026-05-04 09:18 | 23.51924 | 57.64204 | 29242 ft | 530 kts | 130° |
| 2026-05-04 09:19 | 23.49627 | 57.67352 | 29493 ft | 530 kts | 130° |
| 2026-05-04 09:19 | 23.47330 | 57.70504 | 29678 ft | 531 kts | 130° |
| 2026-05-04 09:19 | 23.45030 | 57.73654 | 29868 ft | 531 kts | 130° |
| 2026-05-04 09:19 | 23.42757 | 57.76758 | 30031 ft | 531 kts | 130° |
| 2026-05-04 09:20 | 23.40452 | 57.79903 | 30274 ft | 530 kts | 130° |
| 2026-05-04 09:20 | 23.38153 | 57.83035 | 30434 ft | 529 kts | 130° |
| 2026-05-04 09:20 | 23.35857 | 57.86162 | 30628 ft | 529 kts | 130° |
| 2026-05-04 09:20 | 23.33561 | 57.89290 | 30796 ft | 529 kts | 130° |
| 2026-05-04 09:21 | 23.28987 | 57.95516 | 30817 ft | 523 kts | 130° |
| 2026-05-04 09:21 | 23.24439 | 58.01698 | 30817 ft | 524 kts | 130° |
| 2026-05-04 09:22 | 23.20152 | 58.08110 | 30797 ft | 524 kts | 125° |
| 2026-05-04 09:22 | 23.16156 | 58.14662 | 30808 ft | 524 kts | 124° |
| 2026-05-04 09:23 | 23.12099 | 58.21243 | 30796 ft | 524 kts | 125° |
| 2026-05-04 09:23 | 23.07982 | 58.27785 | 30806 ft | 525 kts | 126° |
| 2026-05-04 09:25 | 22.89485 | 58.45817 | 30788 ft | 515 kts | 152° |
| 2026-05-04 09:25 | 22.86414 | 58.47816 | 30784 ft | 515 kts | 152° |
| 2026-05-04 09:26 | 22.80269 | 58.51829 | 30769 ft | 516 kts | 152° |
| 2026-05-04 09:26 | 22.74125 | 58.55875 | 30777 ft | 515 kts | 151° |
| 2026-05-04 09:27 | 22.68012 | 58.59915 | 30772 ft | 515 kts | 151° |
| 2026-05-04 09:27 | 22.61893 | 58.63963 | 30767 ft | 515 kts | 151° |
| 2026-05-04 09:28 | 22.55802 | 58.67981 | 30761 ft | 515 kts | 151° |
| 2026-05-04 09:28 | 22.49689 | 58.72008 | 30768 ft | 513 kts | 151° |
| 2026-05-04 09:29 | 22.43593 | 58.76021 | 30766 ft | 512 kts | 151° |
| 2026-05-04 09:29 | 22.37505 | 58.80024 | 30762 ft | 512 kts | 151° |
| 2026-05-04 09:30 | 22.31445 | 58.84006 | 30760 ft | 512 kts | 151° |
| 2026-05-04 09:30 | 22.25383 | 58.88066 | 30763 ft | 513 kts | 146° |
| 2026-05-04 09:31 | 22.20182 | 58.93359 | 30758 ft | 516 kts | 133° |
| 2026-05-04 09:31 | 22.15517 | 58.99270 | 30756 ft | 518 kts | 131° |
| 2026-05-04 09:32 | 22.11718 | 59.04254 | 30748 ft | 518 kts | 130° |
| 2026-05-04 09:34 | 21.93276 | 59.28171 | 30738 ft | 519 kts | 131° |
| 2026-05-04 09:34 | 21.88648 | 59.34133 | 30738 ft | 519 kts | 131° |
| 2026-05-04 09:35 | 21.84004 | 59.40111 | 30733 ft | 519 kts | 131° |
| 2026-05-04 09:35 | 21.79371 | 59.46069 | 30736 ft | 518 kts | 131° |
| 2026-05-04 09:37 | 21.60854 | 59.69813 | 30729 ft | 518 kts | 131° |
| 2026-05-04 09:38 | 21.56216 | 59.75744 | 30729 ft | 518 kts | 131° |
| 2026-05-04 09:38 | 21.51576 | 59.81665 | 30728 ft | 518 kts | 131° |
| 2026-05-04 09:39 | 21.46916 | 59.87576 | 30735 ft | 518 kts | 131° |
| 2026-05-04 09:39 | 21.42260 | 59.93473 | 30735 ft | 518 kts | 131° |
| 2026-05-04 09:40 | 21.37601 | 59.99374 | 30738 ft | 518 kts | 131° |
| 2026-05-04 09:40 | 21.32948 | 60.05264 | 30741 ft | 517 kts | 131° |
| 2026-05-04 09:42 | 21.14356 | 60.28780 | 30744 ft | 517 kts | 131° |
| 2026-05-04 09:43 | 21.09703 | 60.34659 | 30744 ft | 517 kts | 131° |
| 2026-05-04 09:43 | 21.05056 | 60.40524 | 30744 ft | 517 kts | 131° |
| 2026-05-04 09:44 | 21.00395 | 60.46400 | 30752 ft | 517 kts | 131° |
| 2026-05-04 09:46 | 20.81785 | 60.69803 | 30750 ft | 516 kts | 131° |
| 2026-05-04 09:46 | 20.77118 | 60.75656 | 30762 ft | 517 kts | 131° |
| 2026-05-04 09:47 | 20.72448 | 60.81507 | 30752 ft | 517 kts | 131° |
| 2026-05-04 09:49 | 20.55145 | 61.05849 | 30758 ft | 516 kts | 122° |
| 2026-05-04 09:51 | 20.41690 | 61.28416 | 30758 ft | 514 kts | 122° |
| 2026-05-04 09:51 | 20.37833 | 61.34844 | 30763 ft | 514 kts | 122° |
| 2026-05-04 09:52 | 20.33969 | 61.41278 | 30756 ft | 515 kts | 122° |
| 2026-05-04 09:52 | 20.30098 | 61.47718 | 30760 ft | 515 kts | 122° |
| 2026-05-04 09:53 | 20.26228 | 61.54149 | 30761 ft | 515 kts | 122° |
| 2026-05-04 09:53 | 20.22358 | 61.60574 | 30760 ft | 514 kts | 122° |
| 2026-05-04 09:54 | 20.18522 | 61.66933 | 30761 ft | 513 kts | 122° |
| 2026-05-04 09:54 | 20.14667 | 61.73318 | 30763 ft | 513 kts | 122° |
| 2026-05-04 09:55 | 20.10807 | 61.79704 | 30761 ft | 513 kts | 122° |
| 2026-05-04 09:55 | 20.06942 | 61.86092 | 30760 ft | 513 kts | 122° |
| 2026-05-04 09:56 | 20.03072 | 61.92480 | 30764 ft | 513 kts | 122° |
| 2026-05-04 09:56 | 19.99213 | 61.98844 | 30764 ft | 511 kts | 122° |
| 2026-05-04 09:57 | 19.95360 | 62.05191 | 30767 ft | 511 kts | 122° |
| 2026-05-04 09:57 | 19.91499 | 62.11545 | 30770 ft | 511 kts | 122° |
| 2026-05-04 09:58 | 19.87664 | 62.17850 | 30769 ft | 511 kts | 122° |
| 2026-05-04 09:58 | 19.83802 | 62.24190 | 30774 ft | 511 kts | 122° |
| 2026-05-04 10:00 | 19.68415 | 62.49390 | 30775 ft | 507 kts | 122° |
| 2026-05-04 10:04 | 19.41488 | 62.93236 | 30773 ft | 507 kts | 122° |
| 2026-05-04 10:04 | 19.37650 | 62.99460 | 30774 ft | 507 kts | 122° |
| 2026-05-04 10:05 | 19.33794 | 63.05705 | 30779 ft | 507 kts | 122° |
| 2026-05-04 10:05 | 19.29938 | 63.11947 | 30778 ft | 506 kts | 122° |
| 2026-05-04 10:06 | 19.26087 | 63.18171 | 30783 ft | 505 kts | 122° |
| 2026-05-04 10:06 | 19.22234 | 63.24394 | 30782 ft | 505 kts | 122° |
| 2026-05-04 10:08 | 19.08759 | 63.46108 | 30785 ft | 506 kts | 122° |
| 2026-05-04 10:08 | 19.04891 | 63.52326 | 30787 ft | 505 kts | 122° |
| 2026-05-04 10:09 | 19.01031 | 63.58526 | 30785 ft | 504 kts | 122° |
| 2026-05-04 10:09 | 18.97168 | 63.64727 | 30788 ft | 504 kts | 122° |
| 2026-05-04 10:10 | 18.93312 | 63.70910 | 30788 ft | 504 kts | 122° |
| 2026-05-04 10:10 | 18.89478 | 63.77053 | 30788 ft | 504 kts | 122° |
| 2026-05-04 10:11 | 18.85612 | 63.83242 | 30793 ft | 505 kts | 122° |
| 2026-05-04 10:11 | 18.81737 | 63.89437 | 30787 ft | 504 kts | 122° |
| 2026-05-04 10:12 | 18.77877 | 63.95604 | 30794 ft | 502 kts | 122° |
| 2026-05-04 10:12 | 18.74029 | 64.01744 | 30793 ft | 502 kts | 122° |
| 2026-05-04 10:13 | 18.70174 | 64.07892 | 30792 ft | 502 kts | 122° |
| 2026-05-04 10:13 | 18.66344 | 64.13993 | 30793 ft | 503 kts | 122° |
| 2026-05-04 10:14 | 18.62480 | 64.20140 | 30793 ft | 503 kts | 122° |
| 2026-05-04 10:16 | 18.47038 | 64.44655 | 30797 ft | 502 kts | 122° |
| 2026-05-04 10:16 | 18.43194 | 64.50742 | 30796 ft | 502 kts | 122° |
| 2026-05-04 10:17 | 18.39323 | 64.56867 | 30796 ft | 502 kts | 122° |
| 2026-05-04 10:19 | 18.23853 | 64.81283 | 30798 ft | 500 kts | 122° |
| 2026-05-04 10:19 | 18.20016 | 64.87325 | 30802 ft | 500 kts | 122° |
| 2026-05-04 10:20 | 18.16149 | 64.93409 | 30798 ft | 500 kts | 122° |
| 2026-05-04 10:20 | 18.12280 | 64.99490 | 30795 ft | 500 kts | 122° |
| 2026-05-04 10:21 | 18.08406 | 65.05573 | 30800 ft | 502 kts | 122° |
| 2026-05-04 10:21 | 18.04490 | 65.11719 | 30797 ft | 510 kts | 122° |
| 2026-05-04 10:22 | 17.98557 | 65.21014 | 30802 ft | 512 kts | 122° |
| 2026-05-04 10:23 | 17.94587 | 65.27226 | 30804 ft | 511 kts | 122° |
| 2026-05-04 10:25 | 17.79372 | 65.50983 | 30803 ft | 511 kts | 122° |
| 2026-05-04 10:25 | 17.75405 | 65.57163 | 30804 ft | 510 kts | 122° |
| 2026-05-04 10:26 | 17.71461 | 65.63304 | 30806 ft | 510 kts | 122° |
| 2026-05-04 10:26 | 17.67496 | 65.69468 | 30805 ft | 510 kts | 122° |
| 2026-05-04 10:27 | 17.63525 | 65.75639 | 30809 ft | 510 kts | 122° |
| 2026-05-04 10:27 | 17.59574 | 65.81822 | 30806 ft | 510 kts | 122° |
| 2026-05-04 10:28 | 17.55732 | 65.88075 | 30806 ft | 510 kts | 121° |
| 2026-05-04 10:28 | 17.51908 | 65.94336 | 30810 ft | 509 kts | 121° |
| 2026-05-04 10:29 | 17.48055 | 66.00602 | 30805 ft | 514 kts | 121° |
| 2026-05-04 10:29 | 17.44184 | 66.06869 | 30805 ft | 514 kts | 121° |
| 2026-05-04 10:30 | 17.40293 | 66.13154 | 30809 ft | 514 kts | 121° |
| 2026-05-04 10:30 | 17.36400 | 66.19440 | 30811 ft | 514 kts | 121° |
| 2026-05-04 10:31 | 17.32503 | 66.25727 | 30815 ft | 514 kts | 121° |
| 2026-05-04 10:32 | 17.18867 | 66.47682 | 30816 ft | 515 kts | 121° |
| 2026-05-04 10:33 | 17.14959 | 66.53960 | 30812 ft | 515 kts | 121° |
| 2026-05-04 10:33 | 17.11047 | 66.60240 | 30810 ft | 515 kts | 121° |
| 2026-05-04 10:34 | 17.07139 | 66.66508 | 30811 ft | 522 kts | 121° |
| 2026-05-04 10:34 | 17.03146 | 66.72909 | 30810 ft | 529 kts | 121° |
| 2026-05-04 10:35 | 16.99133 | 66.79331 | 30812 ft | 527 kts | 121° |
| 2026-05-04 10:35 | 16.95130 | 66.85730 | 30812 ft | 525 kts | 121° |
| 2026-05-04 10:36 | 16.91127 | 66.92127 | 30819 ft | 526 kts | 121° |
| 2026-05-04 10:36 | 16.87115 | 66.98532 | 30818 ft | 526 kts | 121° |
| 2026-05-04 10:37 | 16.83109 | 67.04922 | 30815 ft | 526 kts | 121° |
| 2026-05-04 10:37 | 16.79095 | 67.11317 | 30814 ft | 526 kts | 121° |
| 2026-05-04 10:39 | 16.65111 | 67.33593 | 30818 ft | 524 kts | 121° |
| 2026-05-04 10:40 | 16.61103 | 67.39934 | 30819 ft | 524 kts | 121° |
| 2026-05-04 10:40 | 16.57086 | 67.46286 | 30815 ft | 524 kts | 121° |
| 2026-05-04 10:41 | 16.53079 | 67.52631 | 30822 ft | 524 kts | 121° |
| 2026-05-04 10:41 | 16.49089 | 67.58946 | 30817 ft | 524 kts | 121° |
| 2026-05-04 10:42 | 16.45074 | 67.65295 | 30816 ft | 523 kts | 121° |
| 2026-05-04 10:42 | 16.41067 | 67.71626 | 30819 ft | 522 kts | 121° |
| 2026-05-04 10:43 | 16.37063 | 67.77947 | 30816 ft | 522 kts | 121° |
| 2026-05-04 10:45 | 16.21106 | 68.03162 | 30820 ft | 522 kts | 121° |
| 2026-05-04 10:45 | 16.17132 | 68.09488 | 30822 ft | 521 kts | 121° |
| 2026-05-04 10:46 | 16.13192 | 68.15747 | 30822 ft | 520 kts | 121° |
| 2026-05-04 10:46 | 16.09228 | 68.22037 | 30825 ft | 520 kts | 121° |
| 2026-05-04 10:47 | 16.05256 | 68.28331 | 30826 ft | 520 kts | 121° |
| 2026-05-04 10:47 | 16.01293 | 68.34622 | 30826 ft | 520 kts | 121° |
| 2026-05-04 10:49 | 15.85442 | 68.59684 | 30826 ft | 518 kts | 122° |
| 2026-05-04 10:50 | 15.81469 | 68.65937 | 30824 ft | 519 kts | 122° |
| 2026-05-04 10:52 | 15.65579 | 68.90919 | 30828 ft | 519 kts | 122° |
| 2026-05-04 10:52 | 15.61603 | 68.97162 | 30828 ft | 519 kts | 122° |
| 2026-05-04 10:54 | 15.45680 | 69.22112 | 30830 ft | 518 kts | 122° |
| 2026-05-04 10:56 | 15.29734 | 69.47015 | 30827 ft | 519 kts | 122° |
| 2026-05-04 10:57 | 15.25735 | 69.53248 | 30828 ft | 519 kts | 122° |
| 2026-05-04 10:57 | 15.21730 | 69.59485 | 30826 ft | 520 kts | 122° |
| 2026-05-04 10:58 | 15.17723 | 69.65721 | 30826 ft | 520 kts | 122° |
| 2026-05-04 10:58 | 15.13735 | 69.71922 | 30826 ft | 520 kts | 122° |
| 2026-05-04 10:59 | 15.09728 | 69.78163 | 30826 ft | 520 kts | 122° |
| 2026-05-04 10:59 | 15.05760 | 69.84423 | 30824 ft | 520 kts | 122° |
| 2026-05-04 11:00 | 15.01800 | 69.90680 | 30884 ft | 520 kts | 122° |
| 2026-05-04 11:01 | 14.88013 | 70.12368 | 32209 ft | 513 kts | 122° |
| 2026-05-04 11:02 | 14.86051 | 70.15447 | 32367 ft | 513 kts | 122° |
| 2026-05-04 11:02 | 14.84088 | 70.18528 | 32516 ft | 512 kts | 123° |
| 2026-05-04 11:05 | 14.56633 | 70.61490 | 32823 ft | 512 kts | 123° |
| 2026-05-04 11:06 | 14.52694 | 70.67633 | 32826 ft | 513 kts | 123° |
| 2026-05-04 11:06 | 14.48757 | 70.73770 | 32826 ft | 513 kts | 123° |
| 2026-05-04 11:10 | 14.21374 | 71.16746 | 32821 ft | 513 kts | 123° |
| 2026-05-04 11:12 | 14.05766 | 71.41376 | 32823 ft | 513 kts | 123° |
| 2026-05-04 11:12 | 14.01861 | 71.47527 | 32823 ft | 513 kts | 123° |
| 2026-05-04 11:13 | 13.97983 | 71.53631 | 32823 ft | 513 kts | 123° |
| 2026-05-04 11:13 | 13.94066 | 71.59791 | 32820 ft | 513 kts | 123° |
| 2026-05-04 11:14 | 13.90159 | 71.65932 | 32821 ft | 513 kts | 123° |
| 2026-05-04 11:16 | 13.75217 | 71.89375 | 32820 ft | 511 kts | 123° |
| 2026-05-04 11:16 | 13.71306 | 71.95500 | 32821 ft | 511 kts | 123° |
| 2026-05-04 11:17 | 13.67215 | 72.01470 | 32825 ft | 510 kts | 128° |
| 2026-05-04 11:19 | 13.49358 | 72.24120 | 32820 ft | 509 kts | 130° |
| 2026-05-04 11:19 | 13.44891 | 72.29761 | 32820 ft | 508 kts | 130° |
| 2026-05-04 11:20 | 13.40421 | 72.35404 | 32818 ft | 509 kts | 130° |
| 2026-05-04 11:20 | 13.35955 | 72.41038 | 32820 ft | 508 kts | 130° |
| 2026-05-04 11:22 | 13.18099 | 72.63527 | 32819 ft | 508 kts | 130° |
| 2026-05-04 11:23 | 13.13632 | 72.69145 | 32816 ft | 508 kts | 130° |
| 2026-05-04 11:25 | 12.98007 | 72.88764 | 32818 ft | 508 kts | 130° |
| 2026-05-04 11:25 | 12.93533 | 72.94373 | 32818 ft | 508 kts | 130° |
| 2026-05-04 11:27 | 12.73361 | 73.19622 | 32814 ft | 509 kts | 130° |
| 2026-05-04 11:28 | 12.68871 | 73.25233 | 32812 ft | 509 kts | 130° |
| 2026-05-04 11:28 | 12.64377 | 73.30846 | 32810 ft | 509 kts | 130° |
| 2026-05-04 11:29 | 12.59879 | 73.36459 | 32809 ft | 509 kts | 130° |
| 2026-05-04 11:29 | 12.55382 | 73.42068 | 32807 ft | 509 kts | 130° |
| 2026-05-04 11:33 | 12.23940 | 73.81189 | 32807 ft | 509 kts | 130° |
| 2026-05-04 11:33 | 12.19432 | 73.86786 | 32807 ft | 509 kts | 130° |
| 2026-05-04 11:34 | 12.14928 | 73.92374 | 32805 ft | 509 kts | 130° |
| 2026-05-04 11:34 | 12.10453 | 73.97921 | 32805 ft | 509 kts | 130° |
| 2026-05-04 11:35 | 12.05948 | 74.03505 | 32805 ft | 509 kts | 131° |
| 2026-05-04 11:35 | 12.01432 | 74.09096 | 32805 ft | 510 kts | 130° |
| 2026-05-04 11:36 | 11.96913 | 74.14689 | 32804 ft | 510 kts | 130° |
| 2026-05-04 11:36 | 11.92393 | 74.20280 | 32804 ft | 510 kts | 130° |
| 2026-05-04 11:37 | 11.87877 | 74.25864 | 32804 ft | 510 kts | 130° |
| 2026-05-04 11:37 | 11.83364 | 74.31440 | 32804 ft | 509 kts | 130° |
| 2026-05-04 11:38 | 11.78850 | 74.37014 | 32801 ft | 510 kts | 131° |
| 2026-05-04 11:38 | 11.74329 | 74.42594 | 32804 ft | 509 kts | 131° |
| 2026-05-04 11:39 | 11.69807 | 74.48172 | 32805 ft | 510 kts | 131° |
| 2026-05-04 11:41 | 11.53977 | 74.67672 | 32798 ft | 509 kts | 130° |
| 2026-05-04 11:41 | 11.49492 | 74.73190 | 32799 ft | 508 kts | 130° |
| 2026-05-04 11:42 | 11.44970 | 74.78750 | 32803 ft | 509 kts | 131° |
| 2026-05-04 11:42 | 11.40455 | 74.84300 | 32801 ft | 508 kts | 130° |
| 2026-05-04 11:43 | 11.35940 | 74.89846 | 32797 ft | 508 kts | 131° |
| 2026-05-04 11:43 | 11.31419 | 74.95403 | 32801 ft | 509 kts | 131° |
| 2026-05-04 11:44 | 11.26898 | 75.00946 | 32802 ft | 508 kts | 131° |
| 2026-05-04 11:44 | 11.22375 | 75.06489 | 32805 ft | 509 kts | 131° |
| 2026-05-04 11:45 | 11.17840 | 75.12045 | 32797 ft | 510 kts | 131° |
| 2026-05-04 11:45 | 11.13308 | 75.17596 | 32796 ft | 510 kts | 131° |
| 2026-05-04 11:46 | 11.08801 | 75.23114 | 32795 ft | 510 kts | 131° |
| 2026-05-04 11:46 | 11.04264 | 75.28666 | 32796 ft | 510 kts | 131° |
| 2026-05-04 11:47 | 10.99729 | 75.34213 | 32796 ft | 510 kts | 131° |
| 2026-05-04 11:47 | 10.95187 | 75.39764 | 32793 ft | 510 kts | 131° |
| 2026-05-04 11:48 | 10.90653 | 75.45303 | 32800 ft | 509 kts | 131° |
| 2026-05-04 11:48 | 10.86118 | 75.50841 | 32799 ft | 510 kts | 131° |
| 2026-05-04 11:49 | 10.81578 | 75.56381 | 32798 ft | 510 kts | 131° |
| 2026-05-04 11:49 | 10.77036 | 75.61920 | 32799 ft | 509 kts | 131° |
| 2026-05-04 11:50 | 10.72498 | 75.67454 | 32802 ft | 510 kts | 131° |
| 2026-05-04 11:50 | 10.67949 | 75.72996 | 32799 ft | 509 kts | 131° |
| 2026-05-04 11:51 | 10.63434 | 75.78495 | 32798 ft | 509 kts | 131° |
| 2026-05-04 11:51 | 10.58886 | 75.84030 | 32799 ft | 510 kts | 131° |
| 2026-05-04 11:52 | 10.54357 | 75.89542 | 32802 ft | 507 kts | 131° |
| 2026-05-04 11:52 | 10.49834 | 75.95042 | 32804 ft | 507 kts | 131° |
| 2026-05-04 11:53 | 10.45311 | 76.00539 | 32804 ft | 507 kts | 131° |
| 2026-05-04 11:53 | 10.40785 | 76.06037 | 32805 ft | 507 kts | 131° |
| 2026-05-04 11:55 | 10.22698 | 76.27982 | 32821 ft | 504 kts | 131° |
| 2026-05-04 11:56 | 10.18206 | 76.33426 | 32830 ft | 503 kts | 131° |
| 2026-05-04 11:56 | 10.13706 | 76.38877 | 32829 ft | 503 kts | 131° |
| 2026-05-04 11:57 | 10.09221 | 76.44280 | 32828 ft | 505 kts | 131° |
| 2026-05-04 11:57 | 10.04673 | 76.49744 | 32822 ft | 507 kts | 131° |
| 2026-05-04 11:58 | 10.00113 | 76.55223 | 32816 ft | 508 kts | 131° |
| 2026-05-04 11:58 | 9.95545 | 76.60714 | 32807 ft | 509 kts | 131° |
| 2026-05-04 11:59 | 9.90980 | 76.66200 | 32817 ft | 509 kts | 131° |
| 2026-05-04 11:59 | 9.86417 | 76.71681 | 32815 ft | 508 kts | 131° |
| 2026-05-04 12:00 | 9.81861 | 76.77151 | 32817 ft | 508 kts | 131° |
| 2026-05-04 12:00 | 9.77323 | 76.82596 | 32842 ft | 508 kts | 131° |
| 2026-05-04 12:01 | 9.72763 | 76.88066 | 32842 ft | 507 kts | 131° |
| 2026-05-04 12:02 | 9.56798 | 77.07195 | 32849 ft | 507 kts | 131° |
| 2026-05-04 12:03 | 9.52243 | 77.12648 | 32853 ft | 506 kts | 131° |
| 2026-05-04 12:03 | 9.47693 | 77.18090 | 32856 ft | 505 kts | 131° |
| 2026-05-04 12:04 | 9.43181 | 77.23487 | 32838 ft | 506 kts | 131° |
| 2026-05-04 12:04 | 9.38624 | 77.28933 | 32840 ft | 508 kts | 131° |
| 2026-05-04 12:05 | 9.34045 | 77.34403 | 32841 ft | 509 kts | 131° |
| 2026-05-04 12:05 | 9.29466 | 77.39872 | 32814 ft | 509 kts | 131° |
| 2026-05-04 12:06 | 9.24883 | 77.45343 | 32815 ft | 509 kts | 131° |
| 2026-05-04 12:06 | 9.21078 | 77.49883 | 32816 ft | 509 kts | 131° |
| 2026-05-04 12:07 | 9.16489 | 77.55361 | 32790 ft | 511 kts | 130° |
| 2026-05-04 12:07 | 9.11893 | 77.60842 | 32788 ft | 511 kts | 130° |
| 2026-05-04 12:08 | 9.07266 | 77.66352 | 32791 ft | 515 kts | 130° |
| 2026-05-04 12:08 | 9.02615 | 77.71888 | 32787 ft | 515 kts | 130° |
| 2026-05-04 12:09 | 8.98005 | 77.77377 | 32787 ft | 515 kts | 130° |
| 2026-05-04 12:09 | 8.93353 | 77.82913 | 32781 ft | 516 kts | 130° |
| 2026-05-04 12:10 | 8.88708 | 77.88439 | 32783 ft | 515 kts | 130° |
| 2026-05-04 12:10 | 8.84050 | 77.93978 | 32776 ft | 518 kts | 130° |
| 2026-05-04 12:11 | 8.79411 | 77.99493 | 32772 ft | 507 kts | 132° |
| 2026-05-04 12:11 | 8.74837 | 78.04927 | 32774 ft | 506 kts | 132° |
| 2026-05-04 12:12 | 8.70299 | 78.10315 | 32774 ft | 505 kts | 132° |
| 2026-05-04 12:12 | 8.65746 | 78.15718 | 32778 ft | 504 kts | 132° |